createdAt,value
2019-05-26T00:01:14.631Z,14.77
2019-05-26T00:03:41.822Z,14.93
2019-05-26T00:06:08.864Z,14.73
2019-05-26T00:08:36.190Z,14.30
2019-05-26T00:11:03.379Z,14.10
2019-05-26T00:13:30.516Z,13.86
2019-05-26T00:15:57.942Z,13.77
2019-05-26T00:18:26.062Z,13.74
2019-05-26T00:20:53.238Z,13.49
2019-05-26T00:23:20.324Z,13.46
2019-05-26T00:25:47.823Z,13.50
2019-05-26T00:28:16.391Z,13.56
2019-05-26T00:30:45.251Z,13.60
2019-05-26T00:33:12.403Z,13.44
2019-05-26T00:35:39.547Z,13.32
2019-05-26T00:38:06.841Z,13.57
2019-05-26T00:40:34.073Z,13.91
2019-05-26T00:43:01.104Z,14.03
2019-05-26T00:45:28.183Z,14.19
2019-05-26T00:47:55.713Z,14.33
2019-05-26T00:50:22.779Z,14.22
2019-05-26T00:52:49.830Z,14.08
2019-05-26T00:55:17.239Z,13.99
2019-05-26T00:57:44.523Z,14.14
2019-05-26T01:00:12.279Z,14.17
2019-05-26T01:02:39.867Z,14.11
2019-05-26T01:05:08.761Z,13.91
2019-05-26T01:07:36.266Z,13.71
2019-05-26T01:10:04.492Z,13.57
2019-05-26T01:12:31.550Z,13.34
2019-05-26T01:14:58.597Z,13.24
2019-05-26T01:17:25.744Z,12.99
2019-05-26T01:19:54.614Z,12.70
2019-05-26T01:22:21.747Z,12.44
2019-05-26T01:24:48.793Z,12.24
2019-05-26T01:27:15.847Z,12.01
2019-05-26T01:29:43.032Z,12.04
2019-05-26T01:32:10.135Z,12.14
2019-05-26T01:34:37.305Z,12.13
2019-05-26T01:37:05.367Z,12.29
2019-05-26T01:39:32.609Z,12.35
2019-05-26T01:41:59.967Z,12.33
2019-05-26T01:44:27.250Z,12.23
2019-05-26T01:46:54.291Z,12.06
2019-05-26T01:49:21.301Z,12.03
2019-05-26T01:51:48.373Z,12.18
2019-05-26T01:54:15.419Z,12.19
2019-05-26T01:56:42.483Z,12.20
2019-05-26T01:59:09.545Z,12.31
2019-05-26T02:01:36.817Z,12.49
2019-05-26T02:04:04.254Z,12.48
2019-05-26T02:06:31.381Z,12.56
2019-05-26T02:08:59.612Z,12.52
2019-05-26T02:11:28.460Z,12.40
2019-05-26T02:13:55.544Z,12.31
2019-05-26T02:16:22.702Z,12.25
2019-05-26T02:18:49.793Z,12.21
2019-05-26T02:21:16.868Z,11.99
2019-05-26T02:23:45.285Z,11.73
2019-05-26T02:26:12.323Z,11.49
2019-05-26T02:28:40.590Z,11.38
2019-05-26T02:31:07.946Z,11.37
2019-05-26T02:33:34.984Z,11.52
2019-05-26T02:36:02.053Z,11.67
2019-05-26T02:38:30.919Z,11.84
2019-05-26T02:40:57.952Z,11.87
2019-05-26T02:43:25.159Z,11.99
2019-05-26T02:45:52.407Z,12.02
2019-05-26T02:48:19.461Z,12.06
2019-05-26T02:50:48.396Z,11.94
2019-05-26T02:53:15.426Z,11.86
2019-05-26T02:55:42.510Z,11.73
2019-05-26T02:58:09.594Z,11.65
2019-05-26T03:00:41.441Z,11.65
2019-05-26T03:03:09.226Z,11.47
2019-05-26T03:05:37.125Z,11.43
2019-05-26T03:08:06.394Z,11.36
2019-05-26T03:10:34.146Z,11.39
2019-05-26T03:13:03.545Z,11.22
2019-05-26T03:15:34.176Z,11.14
2019-05-26T03:18:04.186Z,11.18
2019-05-26T03:20:36.460Z,11.20
2019-05-26T03:23:06.671Z,11.20
2019-05-26T03:25:34.973Z,11.22
2019-05-26T03:28:02.019Z,11.19
2019-05-26T03:30:29.071Z,11.25
2019-05-26T03:32:56.147Z,11.28
2019-05-26T03:35:23.176Z,11.31
2019-05-26T03:37:50.284Z,11.33
2019-05-26T03:40:17.290Z,11.35
2019-05-26T03:42:44.329Z,11.40
2019-05-26T03:45:22.564Z,11.49
2019-05-26T03:47:49.621Z,11.45
2019-05-26T03:50:16.869Z,11.48
2019-05-26T03:52:43.947Z,11.67
2019-05-26T03:55:11.164Z,11.94
2019-05-26T03:57:38.437Z,12.24
2019-05-26T04:00:06.101Z,12.60
2019-05-26T04:02:34.455Z,12.93
2019-05-26T04:05:01.526Z,13.25
2019-05-26T04:07:28.549Z,13.66
2019-05-26T04:10:04.662Z,14.01
2019-05-26T04:12:24.887Z,14.34
2019-05-26T04:14:52.004Z,14.69
2019-05-26T04:17:19.061Z,15.03
2019-05-26T04:19:46.093Z,15.31
2019-05-26T04:22:13.219Z,15.56
2019-05-26T04:24:41.366Z,15.76
2019-05-26T04:27:08.412Z,16.08
2019-05-26T04:29:35.475Z,16.29
2019-05-26T04:32:02.596Z,16.28
2019-05-26T04:34:29.616Z,16.24
2019-05-26T04:36:57.816Z,16.04
2019-05-26T04:39:24.831Z,16.25
2019-05-26T04:41:52.011Z,16.54
2019-05-26T04:44:19.477Z,16.79
2019-05-26T04:46:46.870Z,17.03
2019-05-26T04:49:13.912Z,17.13
2019-05-26T04:51:40.994Z,17.52
2019-05-26T04:54:08.012Z,17.97
2019-05-26T04:56:35.059Z,18.30
2019-05-26T04:59:02.129Z,18.48
2019-05-26T05:01:29.251Z,18.71
2019-05-26T05:03:56.306Z,19.08
2019-05-26T05:06:23.550Z,19.60
2019-05-26T05:09:03.968Z,19.98
2019-05-26T05:11:35.779Z,20.07
2019-05-26T05:14:07.615Z,20.18
2019-05-26T05:16:36.217Z,20.43
2019-05-26T05:19:03.256Z,20.91
2019-05-26T05:21:30.306Z,21.36
2019-05-26T05:23:57.390Z,21.41
2019-05-26T05:26:24.421Z,20.60
2019-05-26T05:28:51.456Z,20.44
2019-05-26T05:31:18.510Z,18.71
2019-05-26T05:33:46.706Z,16.75
2019-05-26T05:36:13.802Z,15.79
2019-05-26T05:38:40.843Z,16.02
2019-05-26T05:41:07.891Z,15.23
2019-05-26T05:43:34.960Z,14.90
2019-05-26T05:46:02.042Z,15.77
2019-05-26T05:48:29.095Z,15.64
2019-05-26T05:51:00.554Z,16.76
2019-05-26T05:53:34.233Z,17.24
2019-05-26T05:56:08.968Z,17.26
2019-05-26T05:58:41.131Z,17.87
2019-05-26T06:01:12.524Z,19.14
2019-05-26T06:04:14.058Z,19.15
2019-05-26T06:06:48.516Z,20.17
2019-05-26T06:09:30.084Z,19.98
2019-05-26T06:11:58.612Z,18.49
2019-05-26T06:14:25.661Z,19.48
2019-05-26T06:16:52.728Z,18.63
2019-05-26T06:19:23.679Z,17.45
2019-05-26T06:21:50.935Z,16.94
2019-05-26T06:24:18.592Z,17.93
2019-05-26T06:26:48.010Z,18.04
2019-05-26T06:29:15.108Z,19.97
2019-05-26T06:31:56.046Z,21.24
2019-05-26T06:34:23.513Z,22.48
2019-05-26T06:36:51.824Z,21.67
2019-05-26T06:39:20.738Z,22.75
2019-05-26T06:41:47.813Z,22.88
2019-05-26T06:44:16.043Z,19.29
2019-05-26T06:49:55.257Z,18.29
2019-05-26T06:52:22.904Z,20.68
2019-05-26T06:54:50.000Z,19.61
2019-05-26T06:57:18.729Z,21.26
2019-05-26T06:59:48.721Z,22.82
2019-05-26T07:02:22.455Z,23.29
2019-05-26T07:04:51.743Z,24.37
2019-05-26T07:07:20.892Z,25.35
2019-05-26T07:09:48.166Z,26.15
2019-05-26T07:12:16.869Z,26.52
2019-05-26T07:14:48.683Z,26.43
2019-05-26T07:17:15.833Z,26.37
2019-05-26T07:19:44.019Z,25.23
2019-05-26T07:22:14.577Z,24.52
2019-05-26T07:24:45.766Z,24.92
2019-05-26T07:27:13.174Z,23.44
2019-05-26T07:29:43.225Z,19.67
2019-05-26T07:32:10.377Z,19.90
2019-05-26T07:34:38.611Z,20.03
2019-05-26T07:37:05.782Z,19.29
2019-05-26T07:39:32.992Z,21.67
2019-05-26T07:42:09.822Z,20.93
2019-05-26T07:44:30.467Z,22.27
2019-05-26T07:46:57.584Z,22.40
2019-05-26T07:49:24.903Z,22.43
2019-05-26T07:51:53.929Z,24.17
2019-05-26T07:54:25.868Z,24.00
2019-05-26T07:56:53.498Z,25.99
2019-05-26T07:59:24.366Z,27.06
2019-05-26T08:01:51.546Z,25.02
2019-05-26T08:04:18.989Z,22.66
2019-05-26T08:06:47.425Z,22.68
2019-05-26T08:09:17.845Z,24.92
2019-05-26T08:11:46.451Z,26.17
2019-05-26T08:14:16.148Z,27.71
2019-05-26T08:16:43.618Z,25.96
2019-05-26T08:19:10.988Z,27.54
2019-05-26T08:21:38.592Z,25.96
2019-05-26T08:24:08.185Z,24.04
2019-05-26T08:26:35.352Z,25.40
2019-05-26T08:29:06.581Z,27.78
2019-05-26T08:31:55.860Z,27.64
2019-05-26T08:34:24.570Z,27.40
2019-05-26T08:36:54.576Z,29.82
2019-05-26T08:39:22.135Z,30.86
2019-05-26T08:41:51.721Z,30.83
2019-05-26T08:44:18.795Z,30.86
2019-05-26T08:46:56.916Z,30.98
2019-05-26T08:49:39.560Z,30.90
2019-05-26T08:52:27.479Z,28.44
2019-05-26T08:54:55.768Z,22.82
2019-05-26T08:57:23.332Z,25.29
2019-05-26T08:59:52.122Z,25.66
2019-05-26T09:02:27.373Z,27.64
2019-05-26T09:04:59.110Z,27.33
2019-05-26T09:07:26.974Z,25.30
2019-05-26T09:09:54.169Z,27.68
2019-05-26T09:12:25.823Z,28.32
2019-05-26T09:14:54.573Z,26.68
2019-05-26T09:17:21.801Z,28.06
2019-05-26T09:20:11.647Z,26.45
2019-05-26T09:22:39.159Z,27.38
2019-05-26T09:25:11.581Z,28.03
2019-05-26T09:27:38.685Z,26.19
2019-05-26T09:30:25.771Z,24.28
2019-05-26T09:32:52.824Z,25.89
2019-05-26T09:35:19.881Z,27.20
2019-05-26T09:37:48.207Z,26.72
2019-05-26T09:40:15.899Z,26.08
2019-05-26T09:42:46.481Z,24.06
2019-05-26T09:45:17.229Z,22.88
2019-05-26T09:47:50.350Z,24.51
2019-05-26T09:50:17.802Z,26.80
2019-05-26T09:52:47.403Z,27.21
2019-05-26T09:55:17.341Z,26.39
2019-05-26T09:57:44.667Z,27.18
2019-05-26T10:00:16.266Z,27.11
2019-05-26T10:03:26.515Z,25.82
2019-05-26T10:06:09.764Z,26.22
2019-05-26T10:08:37.322Z,26.75
2019-05-26T10:11:04.422Z,25.49
2019-05-26T10:13:32.249Z,23.58
2019-05-26T10:15:59.678Z,24.07
2019-05-26T10:18:26.736Z,24.39
2019-05-26T10:20:54.076Z,26.35
2019-05-26T10:23:25.068Z,27.81
2019-05-26T10:25:52.252Z,27.45
2019-05-26T10:28:19.307Z,25.26
2019-05-26T10:30:46.387Z,24.61
2019-05-26T10:33:13.834Z,23.73
2019-05-26T10:35:41.965Z,24.36
2019-05-26T10:38:10.258Z,24.51
2019-05-26T10:40:38.926Z,26.37
2019-05-26T10:43:07.435Z,26.51
2019-05-26T10:45:35.939Z,25.46
2019-05-26T10:48:03.243Z,26.71
2019-05-26T10:50:31.287Z,28.37
2019-05-26T10:53:02.427Z,28.97
2019-05-26T10:55:33.301Z,28.46
2019-05-26T10:58:25.969Z,29.52
2019-05-26T11:01:02.685Z,29.40
2019-05-26T11:03:50.361Z,29.55
2019-05-26T11:06:19.252Z,29.48
2019-05-26T11:08:47.909Z,29.64
2019-05-26T11:11:18.676Z,27.73
2019-05-26T11:13:45.795Z,28.78
2019-05-26T11:16:26.083Z,28.82
2019-05-26T11:18:53.213Z,27.24
2019-05-26T11:21:20.296Z,27.85
2019-05-26T11:23:48.032Z,31.42
2019-05-26T11:26:15.153Z,33.03
2019-05-26T11:28:44.802Z,36.05
2019-05-26T11:31:12.033Z,32.57
2019-05-26T11:33:39.313Z,31.59
2019-05-26T11:36:06.608Z,31.00
2019-05-26T11:38:35.864Z,34.01
2019-05-26T11:41:06.315Z,36.60
2019-05-26T11:43:37.134Z,35.04
2019-05-26T11:46:17.303Z,35.49
2019-05-26T11:48:47.425Z,35.95
2019-05-26T11:51:23.550Z,38.22
2019-05-26T11:53:59.480Z,39.02
2019-05-26T11:56:31.144Z,37.28
2019-05-26T11:59:04.075Z,34.54
2019-05-26T12:01:35.868Z,34.49
2019-05-26T12:04:06.891Z,31.95
2019-05-26T12:06:38.594Z,31.94
2019-05-26T12:09:07.607Z,32.79
2019-05-26T12:11:35.316Z,30.12
2019-05-26T12:14:02.708Z,31.75
2019-05-26T12:16:30.118Z,34.70
2019-05-26T12:19:02.782Z,37.01
2019-05-26T12:21:30.059Z,35.40
2019-05-26T12:23:57.243Z,35.75
2019-05-26T12:26:24.532Z,32.38
2019-05-26T12:28:51.727Z,31.40
2019-05-26T12:31:18.824Z,34.01
2019-05-26T12:33:46.162Z,38.08
2019-05-26T12:36:14.376Z,36.08
2019-05-26T12:38:50.499Z,30.19
2019-05-26T12:41:19.354Z,30.46
2019-05-26T12:43:46.532Z,29.80
2019-05-26T12:46:15.359Z,30.66
2019-05-26T12:48:42.994Z,32.63
2019-05-26T12:51:10.294Z,34.41
2019-05-26T12:53:37.359Z,34.60
2019-05-26T12:56:05.863Z,30.53
2019-05-26T12:58:32.963Z,33.07
2019-05-26T13:01:00.022Z,36.85
2019-05-26T13:03:27.902Z,36.32
2019-05-26T13:05:54.993Z,36.14
2019-05-26T13:08:22.121Z,34.88
2019-05-26T13:10:54.162Z,35.08
2019-05-26T13:13:21.721Z,36.28
2019-05-26T13:15:54.015Z,34.58
2019-05-26T13:18:21.688Z,35.31
2019-05-26T13:20:52.957Z,35.11
2019-05-26T13:23:22.293Z,36.43
2019-05-26T13:25:49.914Z,36.93
2019-05-26T13:31:54.651Z,36.28
2019-05-26T13:34:25.508Z,29.97
2019-05-26T13:36:58.242Z,31.00
2019-05-26T13:39:25.436Z,30.25
2019-05-26T13:42:16.704Z,32.08
2019-05-26T13:45:21.098Z,35.06
2019-05-26T13:47:37.204Z,36.23
2019-05-26T13:50:11.510Z,37.96
2019-05-26T13:52:40.526Z,38.75
2019-05-26T13:55:08.575Z,39.46
2019-05-26T13:57:39.661Z,39.01
2019-05-26T14:00:08.170Z,37.92
2019-05-26T14:02:38.594Z,36.04
2019-05-26T14:05:09.895Z,38.97
2019-05-26T14:07:37.566Z,39.85
2019-05-26T14:10:07.405Z,42.12
2019-05-26T14:12:34.492Z,38.76
2019-05-26T14:15:01.676Z,39.07
2019-05-26T14:17:34.778Z,37.79
2019-05-26T14:20:07.165Z,37.80
2019-05-26T14:22:35.298Z,41.33
2019-05-26T14:25:04.446Z,42.77
2019-05-26T14:27:31.568Z,42.05
2019-05-26T14:30:14.153Z,43.24
2019-05-26T14:32:49.650Z,41.36
2019-05-26T14:35:24.615Z,40.90
2019-05-26T14:37:55.282Z,39.32
2019-05-26T14:40:22.439Z,39.06
2019-05-26T14:42:54.453Z,37.31
2019-05-26T14:45:21.657Z,35.68
2019-05-26T14:48:05.035Z,33.97
2019-05-26T14:50:54.994Z,33.54
2019-05-26T14:53:23.745Z,35.77
2019-05-26T14:56:01.126Z,37.84
2019-05-26T14:58:30.097Z,38.58
2019-05-26T15:00:57.194Z,37.82
2019-05-26T15:03:24.286Z,37.72
2019-05-26T15:06:05.166Z,34.84
2019-05-26T15:08:22.182Z,31.05
2019-05-26T15:10:49.630Z,28.45
2019-05-26T15:13:16.898Z,27.77
2019-05-26T15:15:44.420Z,32.05
2019-05-26T15:18:12.588Z,33.27
2019-05-26T15:20:46.644Z,30.91
2019-05-26T15:23:15.102Z,30.77
2019-05-26T15:25:42.200Z,32.54
2019-05-26T15:28:12.617Z,33.89
2019-05-26T15:30:43.199Z,35.05
2019-05-26T15:33:12.325Z,37.63
2019-05-26T15:35:46.144Z,36.46
2019-05-26T15:38:19.457Z,38.39
2019-05-26T15:40:46.645Z,36.95
2019-05-26T15:43:15.938Z,34.92
2019-05-26T15:45:55.055Z,35.88
2019-05-26T15:48:27.661Z,38.22
2019-05-26T15:50:54.909Z,39.35
2019-05-26T15:53:22.200Z,39.61
2019-05-26T15:55:52.753Z,36.82
2019-05-26T15:58:22.173Z,37.91
2019-05-26T16:00:52.709Z,39.51
2019-05-26T16:03:21.866Z,35.26
2019-05-26T16:05:49.077Z,32.88
2019-05-26T16:08:21.202Z,35.09
2019-05-26T16:10:49.427Z,36.21
2019-05-26T16:13:20.442Z,36.06
2019-05-26T16:15:51.623Z,39.40
2019-05-26T16:18:25.131Z,39.78
2019-05-26T16:21:02.754Z,37.76
2019-05-26T16:23:27.775Z,37.18
2019-05-26T16:25:59.938Z,37.67
2019-05-26T16:28:29.206Z,38.16
2019-05-26T16:30:57.119Z,38.37
2019-05-26T16:33:29.343Z,38.09
2019-05-26T16:35:58.605Z,37.78
2019-05-26T16:38:28.787Z,37.06
2019-05-26T16:40:57.033Z,35.93
2019-05-26T16:43:28.435Z,36.58
2019-05-26T16:45:58.665Z,35.39
2019-05-26T16:48:30.929Z,35.48
2019-05-26T16:51:00.508Z,35.10
2019-05-26T16:53:32.805Z,35.88
2019-05-26T16:56:02.358Z,35.60
2019-05-26T16:58:32.658Z,35.50
2019-05-26T17:01:11.253Z,35.80
2019-05-26T17:03:43.028Z,34.90
2019-05-26T17:06:14.052Z,34.02
2019-05-26T17:08:43.144Z,34.92
2019-05-26T17:11:16.111Z,35.24
2019-05-26T17:13:43.158Z,34.58
2019-05-26T17:16:10.418Z,33.66
2019-05-26T17:18:38.730Z,34.19
2019-05-26T17:21:07.546Z,32.74
2019-05-26T17:23:34.690Z,31.99
2019-05-26T17:26:01.890Z,31.98
2019-05-26T17:28:29.011Z,33.01
2019-05-26T17:30:56.139Z,33.04
2019-05-26T17:33:23.247Z,32.37
2019-05-26T17:35:50.292Z,31.86
2019-05-26T17:38:17.567Z,32.36
2019-05-26T17:40:44.674Z,31.52
2019-05-26T17:43:12.847Z,30.25
2019-05-26T17:45:39.940Z,29.80
2019-05-26T17:48:07.477Z,29.30
2019-05-26T17:50:34.674Z,28.79
2019-05-26T17:53:01.739Z,28.53
2019-05-26T17:55:28.997Z,27.81
2019-05-26T17:57:56.736Z,27.35
2019-05-26T18:00:26.446Z,26.89
2019-05-26T18:02:55.043Z,26.68
2019-05-26T18:05:29.677Z,26.00
2019-05-26T18:08:02.537Z,25.44
2019-05-26T18:10:35.640Z,24.80
2019-05-26T18:13:03.496Z,24.44
2019-05-26T18:15:39.884Z,24.12
2019-05-26T18:18:07.046Z,23.85
2019-05-26T18:20:36.143Z,23.49
2019-05-26T18:23:03.398Z,23.34
2019-05-26T18:25:32.681Z,23.21
2019-05-26T18:28:01.006Z,23.08
2019-05-26T18:30:28.516Z,22.92
2019-05-26T18:32:55.618Z,22.67
2019-05-26T18:35:22.688Z,22.45
2019-05-26T18:37:52.564Z,22.36
2019-05-26T18:40:20.995Z,22.29
2019-05-26T18:42:48.046Z,22.12
2019-05-26T18:45:15.592Z,22.02
2019-05-26T18:47:42.815Z,21.98
2019-05-26T18:50:10.098Z,21.82
2019-05-26T18:52:37.416Z,21.74
2019-05-26T18:55:05.100Z,21.63
2019-05-26T18:57:32.221Z,21.53
2019-05-26T18:59:59.409Z,21.45
2019-05-26T19:02:44.905Z,21.42
2019-05-26T19:05:33.891Z,21.34
2019-05-26T19:08:00.258Z,21.31
2019-05-26T19:10:27.355Z,21.23
2019-05-26T19:12:54.431Z,21.14
2019-05-26T19:15:23.334Z,20.93
2019-05-26T19:17:50.393Z,20.78
2019-05-26T19:20:17.626Z,20.70
2019-05-26T19:22:44.738Z,20.62
2019-05-26T19:25:13.614Z,20.59
2019-05-26T19:27:40.787Z,20.51
2019-05-26T19:30:09.583Z,20.40
2019-05-26T19:32:36.778Z,20.34
2019-05-26T19:35:04.723Z,20.31
2019-05-26T19:37:32.741Z,20.25
2019-05-26T19:39:59.810Z,20.08
2019-05-26T19:42:27.439Z,20.00
2019-05-26T19:44:54.640Z,19.95
2019-05-26T19:47:23.748Z,19.90
2019-05-26T19:49:55.420Z,19.81
2019-05-26T19:52:22.542Z,19.70
2019-05-26T19:54:56.621Z,19.71
2019-05-26T19:57:26.451Z,19.72
2019-05-26T19:59:59.789Z,19.67
2019-05-26T20:02:35.060Z,19.68
2019-05-26T20:05:05.071Z,19.68
2019-05-26T20:07:36.691Z,19.54
2019-05-26T20:10:05.960Z,19.46
2019-05-26T20:12:33.251Z,19.33
2019-05-26T20:15:02.706Z,19.25
2019-05-26T20:17:31.130Z,19.21
2019-05-26T20:20:00.191Z,19.16
2019-05-26T20:22:28.673Z,18.82
2019-05-26T20:24:57.656Z,18.33
2019-05-26T20:27:27.204Z,18.34
2019-05-26T20:29:57.793Z,18.43
2019-05-26T20:32:27.585Z,18.32
2019-05-26T20:34:55.699Z,18.40
2019-05-26T20:37:25.845Z,18.45
2019-05-26T20:39:54.669Z,18.56
2019-05-26T20:42:23.895Z,18.62
2019-05-26T20:44:51.453Z,18.67
2019-05-26T20:47:18.995Z,18.61
2019-05-26T20:49:47.242Z,18.60
2019-05-26T20:52:14.476Z,18.58
2019-05-26T20:54:41.928Z,18.54
2019-05-26T20:57:09.038Z,18.47
2019-05-26T20:59:40.812Z,18.39
2019-05-26T21:02:07.872Z,18.22
2019-05-26T21:04:39.632Z,18.01
2019-05-26T21:07:09.490Z,17.81
2019-05-26T21:09:36.515Z,17.79
2019-05-26T21:12:03.749Z,17.74
2019-05-26T21:14:30.884Z,17.72
2019-05-26T21:16:58.015Z,17.66
2019-05-26T21:19:25.962Z,17.53
2019-05-26T21:21:55.325Z,17.46
2019-05-26T21:24:23.067Z,17.35
2019-05-26T21:26:50.259Z,17.26
2019-05-26T21:29:17.733Z,17.20
2019-05-26T21:31:44.959Z,17.20
2019-05-26T21:34:12.025Z,17.17
2019-05-26T21:36:39.060Z,17.16
2019-05-26T21:39:10.975Z,17.19
2019-05-26T21:41:40.503Z,17.22
2019-05-26T21:44:07.869Z,17.17
2019-05-26T21:46:35.081Z,17.13
2019-05-26T21:49:04.119Z,17.07
2019-05-26T21:51:33.229Z,16.98
2019-05-26T21:54:02.093Z,16.88
2019-05-26T21:56:30.491Z,16.82
2019-05-26T21:58:58.525Z,16.81
2019-05-26T22:01:26.018Z,16.85
2019-05-26T22:03:53.242Z,16.84
2019-05-26T22:06:29.109Z,16.79
2019-05-26T22:09:06.282Z,16.74
2019-05-26T22:11:33.358Z,16.72
2019-05-26T22:14:08.068Z,16.61
2019-05-26T22:16:35.691Z,16.71
2019-05-26T22:19:02.861Z,16.73
2019-05-26T22:21:31.459Z,16.72
2019-05-26T22:24:01.826Z,16.75
2019-05-26T22:26:28.887Z,16.69
2019-05-26T22:28:57.569Z,16.65
2019-05-26T22:31:26.345Z,16.55
2019-05-26T22:33:53.355Z,16.46
2019-05-26T22:36:21.634Z,16.48
2019-05-26T22:38:48.676Z,16.52
2019-05-26T22:41:15.783Z,16.51
2019-05-26T22:43:45.653Z,16.44
2019-05-26T22:46:15.880Z,16.35
2019-05-26T22:48:43.016Z,16.43
2019-05-26T22:51:10.124Z,16.55
2019-05-26T22:53:38.402Z,16.68
2019-05-26T22:56:05.503Z,16.83
2019-05-26T22:58:32.670Z,16.96
2019-05-26T23:00:59.720Z,17.02
2019-05-26T23:03:27.402Z,17.06
2019-05-26T23:05:54.480Z,17.19
2019-05-26T23:08:22.069Z,17.41
2019-05-26T23:10:49.192Z,17.58
2019-05-26T23:13:16.256Z,17.71
2019-05-26T23:15:43.306Z,17.93
2019-05-26T23:18:10.344Z,17.75
2019-05-26T23:20:37.399Z,17.62
2019-05-26T23:23:04.458Z,17.59
2019-05-26T23:25:31.497Z,17.54
2019-05-26T23:27:58.538Z,17.51
2019-05-26T23:30:25.643Z,17.42
2019-05-26T23:32:52.735Z,17.40
2019-05-26T23:35:19.835Z,17.47
2019-05-26T23:37:46.847Z,17.58
2019-05-26T23:40:14.527Z,17.52
2019-05-26T23:42:42.007Z,17.66
2019-05-26T23:45:09.349Z,17.72
2019-05-26T23:47:36.368Z,17.66
2019-05-26T23:50:04.617Z,17.74
2019-05-26T23:52:31.712Z,17.74
2019-05-26T23:54:58.777Z,17.74
2019-05-26T23:57:26.058Z,17.74
2019-05-26T23:59:53.328Z,17.70
